Time;durP1;ratioP1;P1;durP2;ratioP2;P2;SDS_P1;SDS_P2;PMS_P1;PMS_P2;Temp;Humidity;BMP_temperature;BMP_pressure;BME280_temperature;BME280_humidity;BME280_pressure;Samples;Min_cycle;Max_cycle;Signal;HPM_P1;HPM_P2
2021/03/07 00:00:17;;;;;;;41.33;25.42;;;1.00;99.90;;;;;;5076748;28;20028;-55
2021/03/07 00:02:43;;;;;;;64.13;42.28;;;1.30;99.90;;;;;;5073926;28;20552;-48
2021/03/07 00:05:11;;;;;;;25.48;19.40;;;1.20;99.90;;;;;;5056546;28;20480;-55
2021/03/07 00:07:37;;;;;;;20.30;15.23;;;1.10;99.90;;;;;;5037920;28;20041;-51
2021/03/07 00:10:05;;;;;;;21.70;15.38;;;1.20;99.90;;;;;;5056440;28;20033;-51
2021/03/07 00:12:31;;;;;;;22.30;13.88;;;0.90;99.90;;;;;;5054606;28;20044;-51
2021/03/07 00:14:57;;;;;;;21.40;15.05;;;0.70;99.90;;;;;;5056697;28;20024;-54
2021/03/07 00:17:23;;;;;;;25.10;16.05;;;0.30;99.90;;;;;;5054374;28;20044;-51
2021/03/07 00:19:49;;;;;;;23.50;15.85;;;0.10;99.90;;;;;;5056338;28;20021;-55
2021/03/07 00:22:15;;;;;;;21.70;15.48;;;0.30;99.90;;;;;;5056234;28;20098;-52
2021/03/07 00:24:41;;;;;;;26.75;18.30;;;0.40;99.90;;;;;;5056615;28;20035;-50
2021/03/07 00:27:07;;;;;;;25.45;16.55;;;;;;;;;;5056020;28;20104;-51
2021/03/07 00:29:33;;;;;;;26.05;15.52;;;;;;;;;;5055866;28;20067;-51
2021/03/07 00:31:59;;;;;;;22.45;15.38;;;-0.10;99.90;;;;;;5055646;28;20032;-51
2021/03/07 00:34:25;;;;;;;23.52;16.05;;;-0.10;99.90;;;;;;5055462;28;20443;-51
2021/03/07 00:36:50;;;;;;;27.60;16.38;;;-0.30;99.90;;;;;;5056204;28;20057;-51
2021/03/07 00:39:16;;;;;;;28.77;18.40;;;-0.40;99.90;;;;;;5055826;28;20380;-53
2021/03/07 00:41:43;;;;;;;29.23;18.17;;;-0.30;99.90;;;;;;5055801;28;20175;-51
2021/03/07 00:44:10;;;;;;;29.85;18.20;;;-0.20;99.90;;;;;;5069936;28;20024;-52
2021/03/07 00:46:42;;;;;;;31.35;18.52;;;-0.10;99.90;;;;;;5075718;28;20090;-50
2021/03/07 00:49:08;;;;;;;32.63;18.50;;;-0.20;99.90;;;;;;5075704;28;20032;-52
2021/03/07 00:51:34;;;;;;;30.40;16.45;;;-0.20;99.90;;;;;;5075710;28;20035;-52
2021/03/07 00:54:00;;;;;;;26.55;15.75;;;-0.40;99.90;;;;;;5075787;28;20102;-54
2021/03/07 00:56:26;;;;;;;26.05;16.27;;;-0.20;99.90;;;;;;5075641;28;20060;-53
2021/03/07 00:58:51;;;;;;;28.27;18.77;;;-0.10;99.90;;;;;;5075260;28;20059;-50
2021/03/07 01:01:17;;;;;;;27.90;15.95;;;0.30;99.90;;;;;;5075489;28;20028;-49
2021/03/07 01:03:43;;;;;;;35.05;20.13;;;0.70;99.90;;;;;;5075389;28;20119;-52
2021/03/07 01:06:10;;;;;;;24.63;17.50;;;0.80;99.90;;;;;;5075510;28;20118;-51
2021/03/07 01:08:36;;;;;;;25.70;18.75;;;0.80;99.90;;;;;;5075587;28;20056;-54
2021/03/07 01:11:02;;;;;;;21.48;14.80;;;0.80;99.90;;;;;;5073257;28;20024;-50
2021/03/07 01:13:28;;;;;;;21.52;13.40;;;0.60;99.90;;;;;;5067160;28;20514;-50
2021/03/07 01:15:54;;;;;;;23.52;14.55;;;0.40;99.90;;;;;;5055145;28;20029;-53
2021/03/07 01:18:20;;;;;;;18.20;14.65;;;0.20;99.90;;;;;;5061379;28;20020;-54
2021/03/07 01:20:46;;;;;;;19.48;13.32;;;0.10;99.90;;;;;;5075031;28;20025;-49
2021/03/07 01:23:15;;;;;;;20.00;14.30;;;0.20;99.90;;;;;;5068322;28;20047;-54
2021/03/07 01:25:41;;;;;;;22.02;14.82;;;0.30;99.90;;;;;;5054988;28;20036;-53
2021/03/07 01:28:07;;;;;;;19.45;13.10;;;0.70;99.90;;;;;;5053090;28;20552;-52
2021/03/07 01:30:36;;;;;;;16.10;12.43;;;0.70;99.90;;;;;;5055328;28;20044;-50
2021/03/07 01:33:03;;;;;;;18.23;13.23;;;0.50;99.90;;;;;;5055281;28;20150;-50
2021/03/07 01:35:29;;;;;;;18.98;13.30;;;0.60;99.90;;;;;;5054800;28;20021;-51
2021/03/07 01:37:55;;;;;;;19.88;13.30;;;0.80;99.90;;;;;;5074235;28;20404;-50
2021/03/07 01:40:30;;;;;;;19.35;13.35;;;0.90;99.90;;;;;;5074856;28;20052;-50
2021/03/07 01:42:58;;;;;;;19.73;13.32;;;;;;;;;;5074515;28;20494;-55
2021/03/07 01:45:26;;;;;;;18.40;12.48;;;1.00;99.90;;;;;;5058151;28;20361;-51
2021/03/07 01:47:54;;;;;;;20.25;13.82;;;1.00;99.90;;;;;;5054570;28;20025;-52
2021/03/07 01:50:23;;;;;;;21.38;13.98;;;1.10;99.90;;;;;;5054328;28;20029;-50
2021/03/07 01:52:49;;;;;;;20.73;12.98;;;0.80;99.90;;;;;;5056564;28;20083;-51
2021/03/07 01:55:21;;;;;;;21.38;15.05;;;1.00;99.90;;;;;;5074402;28;20090;-50
2021/03/07 01:57:47;;;;;;;24.52;13.50;;;0.70;99.90;;;;;;5070823;28;20404;-51
2021/03/07 02:00:15;;;;;;;21.27;14.25;;;0.50;99.90;;;;;;5054616;28;20380;-53
2021/03/07 02:02:41;;;;;;;20.15;14.32;;;0.60;99.90;;;;;;5054084;28;20032;-49
2021/03/07 02:05:15;;;;;;;19.33;13.85;;;0.60;99.90;;;;;;5054215;28;20035;-55
2021/03/07 02:07:42;;;;;;;24.65;15.00;;;0.70;99.90;;;;;;5055980;28;20099;-51
2021/03/07 02:10:15;;;;;;;21.83;15.73;;;0.80;99.90;;;;;;5089358;28;20495;-52
2021/03/07 02:12:42;;;;;;;23.23;15.27;;;0.80;99.90;;;;;;5074030;28;20028;-53
2021/03/07 02:15:10;;;;;;;21.30;15.48;;;0.90;99.90;;;;;;5074305;28;20017;-49
2021/03/07 02:17:37;;;;;;;19.42;15.02;;;1.00;99.90;;;;;;5065811;28;20079;-52
2021/03/07 02:20:05;;;;;;;23.90;15.10;;;1.10;99.90;;;;;;5073389;28;20040;-54
2021/03/07 02:22:35;;;;;;;18.20;13.60;;;0.90;99.90;;;;;;5072510;28;20028;-51
2021/03/07 02:25:04;;;;;;;21.15;14.18;;;0.90;99.90;;;;;;5054010;28;20100;-54
2021/03/07 02:27:29;;;;;;;22.40;14.48;;;0.70;99.90;;;;;;5063651;28;20066;-52
2021/03/07 02:29:55;;;;;;;23.75;14.52;;;0.40;99.90;;;;;;5073632;28;20032;-50
2021/03/07 02:32:23;;;;;;;23.00;15.07;;;;;;;;;;5073692;28;20024;-51
2021/03/07 02:34:52;;;;;;;20.13;14.05;;;;;;;;;;5073797;28;20060;-53
2021/03/07 02:37:20;;;;;;;17.30;12.52;;;-0.20;99.90;;;;;;5073731;28;20031;-51
2021/03/07 02:39:46;;;;;;;16.38;12.10;;;-0.20;99.90;;;;;;5073625;28;20032;-52
2021/03/07 02:42:16;;;;;;;18.17;12.68;;;-0.30;99.90;;;;;;5073695;28;20031;-50
2021/03/07 02:44:46;;;;;;;21.17;12.48;;;;;;;;;;5073366;28;20024;-52
2021/03/07 02:47:14;;;;;;;24.00;14.77;;;0.30;99.90;;;;;;5055548;28;20040;-53
2021/03/07 02:49:42;;;;;;;16.48;12.27;;;0.20;99.90;;;;;;5053458;28;20032;-50
2021/03/07 02:52:08;;;;;;;15.95;11.55;;;-0.30;99.90;;;;;;5053491;28;20094;-52
2021/03/07 02:54:36;;;;;;;15.32;11.05;;;0.00;99.90;;;;;;5052175;28;20124;-51
2021/03/07 02:57:03;;;;;;;16.67;12.38;;;0.00;99.90;;;;;;5053005;28;20028;-54
2021/03/07 02:59:30;;;;;;;14.98;11.32;;;0.00;99.90;;;;;;5018644;28;20392;-51
2021/03/07 03:01:59;;;;;;;18.70;13.27;;;0.10;99.90;;;;;;5053234;28;20060;-53
2021/03/07 03:04:26;;;;;;;16.13;11.73;;;0.00;99.90;;;;;;5053470;28;20021;-52
2021/03/07 03:06:53;;;;;;;17.42;12.07;;;-0.20;99.90;;;;;;5053298;28;20423;-54
2021/03/07 03:09:21;;;;;;;16.63;12.55;;;-0.40;99.90;;;;;;5053378;28;20384;-51
2021/03/07 03:11:51;;;;;;;18.00;13.15;;;-0.60;99.90;;;;;;5053281;28;20033;-54
2021/03/07 03:14:17;;;;;;;20.02;13.95;;;;;;;;;;5050933;28;20087;-51
2021/03/07 03:16:48;;;;;;;16.48;12.27;;;-0.70;99.90;;;;;;5034836;28;20037;-53
2021/03/07 03:19:16;;;;;;;15.93;12.45;;;-0.80;99.90;;;;;;5051243;28;20159;-52
2021/03/07 03:21:44;;;;;;;17.50;13.25;;;-0.70;99.90;;;;;;5051304;28;20040;-52
2021/03/07 03:24:10;;;;;;;20.80;14.75;;;-0.50;99.90;;;;;;5051069;28;20043;-52
2021/03/07 03:26:36;;;;;;;18.10;13.63;;;-0.50;99.90;;;;;;5050938;28;20430;-51
2021/03/07 03:29:04;;;;;;;15.45;12.15;;;-0.80;99.90;;;;;;5051221;28;20041;-51
2021/03/07 03:31:30;;;;;;;15.90;12.57;;;-1.10;99.90;;;;;;5034503;28;20518;-52
2021/03/07 03:33:56;;;;;;;17.75;12.48;;;-1.20;99.90;;;;;;5051217;28;20037;-52
2021/03/07 03:36:21;;;;;;;17.33;11.57;;;-1.30;99.90;;;;;;5050935;28;20044;-51
2021/03/07 03:38:51;;;;;;;16.65;12.93;;;-1.20;99.90;;;;;;5050849;28;20029;-49
2021/03/07 03:41:19;;;;;;;17.95;12.77;;;-1.20;99.90;;;;;;5051286;28;20051;-49
2021/03/07 03:43:47;;;;;;;20.75;14.07;;;;;;;;;;5051482;28;20488;-50
2021/03/07 03:46:14;;;;;;;18.67;13.05;;;-1.40;99.90;;;;;;5052942;28;20041;-51
2021/03/07 03:48:46;;;;;;;17.45;14.50;;;-1.40;99.90;;;;;;5060320;28;20060;-52
2021/03/07 03:51:12;;;;;;;21.40;14.50;;;-1.30;99.90;;;;;;5051290;28;20063;-50
2021/03/07 03:53:41;;;;;;;19.15;14.43;;;-1.30;99.90;;;;;;5052947;28;20546;-48
2021/03/07 03:56:08;;;;;;;21.67;15.73;;;-1.30;99.90;;;;;;5053485;28;20025;-50
2021/03/07 03:58:40;;;;;;;23.27;15.07;;;-1.30;99.90;;;;;;5059814;28;20049;-50
2021/03/07 04:01:07;;;;;;;20.42;14.65;;;-1.40;99.90;;;;;;5073723;28;20021;-52
2021/03/07 04:03:35;;;;;;;22.55;15.27;;;-1.60;99.90;;;;;;5073291;28;20032;-52
2021/03/07 04:06:01;;;;;;;32.17;19.95;;;;;;;;;;5073476;28;20430;-51
2021/03/07 04:08:27;;;;;;;38.00;24.85;;;-1.80;99.90;;;;;;5074717;28;20420;-50
2021/03/07 04:10:56;;;;;;;41.58;25.83;;;-1.70;99.90;;;;;;5076364;28;20073;-53
2021/03/07 04:13:27;;;;;;;25.17;17.05;;;-1.60;99.90;;;;;;5076543;28;20056;-51
2021/03/07 04:15:54;;;;;;;31.42;20.65;;;-1.80;99.90;;;;;;5076504;28;20031;-51
2021/03/07 04:18:24;;;;;;;29.42;18.45;;;-1.70;99.90;;;;;;5068206;28;20086;-49
2021/03/07 04:20:50;;;;;;;26.73;18.08;;;-1.50;99.90;;;;;;5056094;28;20476;-49
2021/03/07 04:23:17;;;;;;;24.05;16.40;;;-1.50;99.90;;;;;;5056170;28;20114;-52
2021/03/07 04:25:42;;;;;;;25.48;17.08;;;-1.40;99.90;;;;;;5071187;28;20060;-49
2021/03/07 04:28:09;;;;;;;23.98;17.05;;;-1.20;99.90;;;;;;5056338;28;20480;-53
2021/03/07 04:30:36;;;;;;;21.20;16.42;;;-1.30;99.90;;;;;;5056220;28;20087;-52
2021/03/07 04:33:04;;;;;;;29.42;19.75;;;-1.50;99.90;;;;;;5061698;28;20028;-53
2021/03/07 04:35:31;;;;;;;26.08;17.80;;;-1.60;99.90;;;;;;5076001;28;20409;-52
2021/03/07 04:38:02;;;;;;;28.50;17.67;;;-1.10;99.90;;;;;;5075853;28;20033;-51
2021/03/07 04:40:28;;;;;;;27.77;19.75;;;-1.70;99.90;;;;;;5075891;28;20021;-51
2021/03/07 04:42:54;;;;;;;24.85;17.38;;;-1.50;99.90;;;;;;5071581;28;20039;-51
2021/03/07 04:45:20;;;;;;;23.50;17.77;;;-1.10;99.90;;;;;;5055871;28;20529;-49
2021/03/07 04:47:46;;;;;;;22.25;16.08;;;-1.00;99.90;;;;;;5055877;28;20466;-50
2021/03/07 04:50:13;;;;;;;28.73;17.85;;;-1.20;99.90;;;;;;5068519;28;20040;-49
2021/03/07 04:52:40;;;;;;;23.33;16.65;;;-1.10;99.90;;;;;;5055711;28;20057;-50
2021/03/07 04:55:07;;;;;;;24.90;17.70;;;-1.30;99.90;;;;;;5073293;28;20575;-50
2021/03/07 04:57:33;;;;;;;25.63;16.67;;;-1.30;99.90;;;;;;5075463;28;20084;-52
2021/03/07 04:59:59;;;;;;;25.88;18.65;;;-1.30;99.90;;;;;;5075569;28;20057;-50
2021/03/07 05:02:25;;;;;;;34.38;20.42;;;-1.20;99.90;;;;;;5075452;28;20028;-52
2021/03/07 05:04:50;;;;;;;29.52;18.40;;;-1.10;99.90;;;;;;5075642;28;20078;-51
2021/03/07 05:07:17;;;;;;;26.65;18.77;;;;;;;;;;5075422;28;20029;-53
2021/03/07 05:09:42;;;;;;;29.60;19.33;;;-0.80;99.90;;;;;;5056028;28;20116;-51
2021/03/07 05:12:08;;;;;;;26.05;19.38;;;-1.00;99.90;;;;;;5055233;28;20448;-51
2021/03/07 05:14:34;;;;;;;26.08;18.08;;;-1.10;99.90;;;;;;5053814;28;20044;-49
2021/03/07 05:17:00;;;;;;;22.98;17.35;;;-1.20;99.90;;;;;;5055084;28;20087;-49
2021/03/07 05:19:26;;;;;;;23.50;16.30;;;-1.20;99.90;;;;;;5056870;28;20118;-52
2021/03/07 05:21:52;;;;;;;26.10;17.65;;;-1.20;99.90;;;;;;5055006;28;20033;-50
2021/03/07 05:24:17;;;;;;;31.50;19.38;;;-1.10;99.90;;;;;;5063009;28;20483;-52
2021/03/07 05:26:45;;;;;;;33.53;19.85;;;-1.00;99.90;;;;;;5057750;28;20028;-51
2021/03/07 05:29:11;;;;;;;33.30;21.10;;;-1.10;99.90;;;;;;5055132;28;20479;-50
2021/03/07 05:31:36;;;;;;;37.80;21.10;;;-0.90;99.90;;;;;;5055060;28;20068;-50
2021/03/07 05:34:02;;;;;;;44.42;23.05;;;-0.70;99.90;;;;;;5054711;28;20025;-50
2021/03/07 05:36:28;;;;;;;35.28;23.02;;;-0.50;99.90;;;;;;5054773;28;20029;-53
2021/03/07 05:38:54;;;;;;;32.42;24.45;;;-0.40;99.90;;;;;;5054814;28;20076;-49
2021/03/07 05:41:20;;;;;;;31.95;22.55;;;-0.50;99.90;;;;;;5054750;28;20033;-53
2021/03/07 05:43:47;;;;;;;34.47;22.95;;;-0.80;99.90;;;;;;5064775;28;20098;-51
2021/03/07 05:46:13;;;;;;;34.05;23.25;;;-0.90;99.90;;;;;;5075016;28;20372;-49
2021/03/07 05:48:39;;;;;;;31.98;19.23;;;-0.60;99.90;;;;;;5063953;28;20025;-54
2021/03/07 05:51:08;;;;;;;23.55;16.33;;;-0.20;99.90;;;;;;5054592;28;20041;-49
2021/03/07 05:53:35;;;;;;;24.55;17.70;;;;;;;;;;5054661;28;20017;-51
2021/03/07 05:56:01;;;;;;;32.25;21.70;;;0.00;99.90;;;;;;5054547;28;20107;-50
2021/03/07 05:58:27;;;;;;;30.58;20.80;;;0.30;99.90;;;;;;5062339;28;20047;-50
2021/03/07 06:00:54;;;;;;;29.42;21.40;;;0.00;99.90;;;;;;5074415;28;20067;-50
2021/03/07 06:03:21;;;;;;;59.30;40.40;;;-0.20;99.90;;;;;;5074358;28;20031;-53
2021/03/07 06:05:50;;;;;;;43.53;31.77;;;0.00;99.90;;;;;;5089600;28;20072;-53
2021/03/07 06:08:16;;;;;;;33.75;23.98;;;0.40;99.90;;;;;;5074043;28;20032;-54
2021/03/07 06:10:41;;;;;;;26.38;19.20;;;0.60;99.90;;;;;;5065893;28;20044;-49
2021/03/07 06:13:12;;;;;;;26.88;20.15;;;0.90;99.90;;;;;;5059331;28;20427;-48
2021/03/07 06:15:38;;;;;;;27.90;20.00;;;;;;;;;;5054072;28;20069;-51
2021/03/07 06:18:17;;;;;;;25.27;18.33;;;1.10;99.90;;;;;;5054125;28;20025;-50
2021/03/07 06:20:45;;;;;;;27.95;19.30;;;1.10;99.90;;;;;;5061083;28;20055;-49
2021/03/07 06:23:11;;;;;;;27.15;19.25;;;1.40;99.90;;;;;;5056020;28;20021;-49
2021/03/07 06:25:51;;;;;;;26.55;19.25;;;1.40;99.90;;;;;;5056155;28;20396;-49
2021/03/07 06:28:27;;;;;;;26.48;18.55;;;2.00;99.90;;;;;;5068337;28;20111;-53
2021/03/07 06:30:56;;;;;;;27.85;20.02;;;;;;;;;;5073075;28;20074;-52
2021/03/07 06:33:29;;;;;;;26.08;19.35;;;;;;;;;;5089231;28;20480;-52
2021/03/07 06:36:14;;;;;;;31.42;20.75;;;;;;;;;;5073851;28;20352;-50
2021/03/07 06:38:44;;;;;;;32.28;24.58;;;;;;;;;;5071981;28;20020;-51
2021/03/07 06:41:22;;;;;;;51.97;30.40;;;5.50;99.90;;;;;;5055558;28;20017;-50
2021/03/07 06:43:49;;;;;;;42.50;30.75;;;5.80;99.90;;;;;;5064043;28;20046;-48
2021/03/07 06:46:39;;;;;;;38.78;29.80;;;5.80;99.90;;;;;;5073812;28;20027;-53
2021/03/07 06:49:05;;;;;;;38.17;29.85;;;6.40;99.90;;;;;;5063128;28;20094;-49
2021/03/07 06:51:33;;;;;;;37.28;29.10;;;7.10;99.90;;;;;;5060487;28;20036;-50
2021/03/07 06:54:13;;;;;;;34.22;26.17;;;7.60;99.90;;;;;;5053449;28;20539;-48
2021/03/07 06:56:42;;;;;;;40.00;28.27;;;8.40;99.90;;;;;;5053686;28;20033;-48
2021/03/07 06:59:09;;;;;;;39.03;26.65;;;;;;;;;;5057486;28;20068;-51
2021/03/07 07:01:47;;;;;;;42.08;28.58;;;8.80;99.90;;;;;;5059053;28;20056;-50
2021/03/07 07:04:13;;;;;;;38.30;26.60;;;;;;;;;;5060480;28;20052;-51
2021/03/07 07:06:40;;;;;;;40.22;27.80;;;;;;;;;;5062225;28;20032;-49
2021/03/07 07:09:07;;;;;;;30.83;21.75;;;;;;;;;;5053397;28;20059;-49
2021/03/07 07:11:45;;;;;;;27.27;21.48;;;9.80;92.20;;;;;;5064306;28;20033;-52
2021/03/07 07:14:12;;;;;;;29.42;22.45;;;9.20;88.00;;;;;;5053504;28;20059;-51
2021/03/07 07:16:38;;;;;;;42.70;28.45;;;9.70;92.30;;;;;;5053349;28;20492;-50
2021/03/07 07:19:04;;;;;;;124.53;55.78;;;11.30;86.70;;;;;;5053146;28;20095;-51
2021/03/07 07:21:30;;;;;;;176.93;82.10;;;10.90;83.40;;;;;;5053315;28;20031;-51
2021/03/07 07:23:57;;;;;;;42.15;26.40;;;11.70;80.50;;;;;;5053570;28;20061;-48
2021/03/07 07:26:23;;;;;;;40.33;26.55;;;;;;;;;;5064367;28;20425;-49
2021/03/07 07:28:49;;;;;;;56.97;39.47;;;13.30;75.60;;;;;;5059110;28;20036;-51
2021/03/07 07:31:33;;;;;;;35.58;26.48;;;;;;;;;;5071759;28;20107;-48
2021/03/07 07:34:16;;;;;;;27.02;21.27;;;14.90;95.70;;;;;;5054384;28;20029;-49
2021/03/07 07:36:47;;;;;;;37.03;26.45;;;13.20;89.10;;;;;;5053209;28;20032;-49
2021/03/07 07:39:14;;;;;;;79.50;57.55;;;;;;;;;;5069310;28;20047;-50
2021/03/07 07:41:41;;;;;;;22.60;17.55;;;;;;;;;;5064207;28;20136;-49
2021/03/07 07:44:08;;;;;;;30.92;23.27;;;;;;;;;;5068363;28;20041;-51
2021/03/07 07:46:35;;;;;;;22.10;17.00;;;;;;;;;;5077212;28;20033;-50
2021/03/07 07:49:01;;;;;;;39.95;30.90;;;;;;;;;;5063831;28;20063;-48
2021/03/07 07:51:35;;;;;;;21.98;16.67;;;;;;;;;;5059021;28;20357;-49
2021/03/07 07:54:03;;;;;;;44.95;34.78;;;15.10;91.60;;;;;;5068022;28;20024;-52
2021/03/07 07:56:37;;;;;;;23.25;18.73;;;16.00;61.20;;;;;;5076954;28;20054;-50
2021/03/07 07:59:07;;;;;;;17.85;14.45;;;;;;;;;;5074357;28;20123;-51
2021/03/07 08:01:54;;;;;;;16.23;13.15;;;;;;;;;;5072129;28;20138;-50
2021/03/07 08:04:26;;;;;;;12.10;10.30;;;;;;;;;;5074350;28;20033;-51
2021/03/07 08:06:52;;;;;;;12.32;9.77;;;;;;;;;;5071063;28;20037;-51
2021/03/07 08:09:35;;;;;;;16.23;13.25;;;15.00;59.90;;;;;;5054849;28;20080;-50
2021/03/07 08:12:21;;;;;;;16.13;13.40;;;;;;;;;;5054236;28;20503;-48
2021/03/07 08:14:46;;;;;;;38.70;34.70;;;16.00;86.40;;;;;;5034449;28;20076;-50
2021/03/07 08:17:31;;;;;;;11.90;9.48;;;;;;;;;;5043760;28;20087;-50
2021/03/07 08:19:57;;;;;;;11.60;9.35;;;17.30;86.70;;;;;;5049925;28;20040;-51
2021/03/07 08:22:22;;;;;;;10.20;9.05;;;17.00;69.90;;;;;;5054273;28;20106;-49
2021/03/07 08:24:56;;;;;;;11.50;9.77;;;;;;;;;;5054554;28;20444;-50
2021/03/07 08:27:36;;;;;;;12.02;10.15;;;15.20;66.30;;;;;;5021358;28;20041;-49
2021/03/07 08:30:04;;;;;;;13.15;10.68;;;16.10;48.70;;;;;;5064273;28;20127;-48
2021/03/07 08:32:38;;;;;;;12.30;8.93;;;15.80;49.20;;;;;;5062599;28;20031;-48
2021/03/07 08:35:13;;;;;;;11.73;9.98;;;14.60;72.10;;;;;;5053898;28;20044;-51
2021/03/07 08:37:40;;;;;;;10.75;8.25;;;15.00;50.30;;;;;;5053826;28;20059;-49
2021/03/07 08:40:33;;;;;;;10.10;9.10;;;14.30;47.10;;;;;;5053917;28;20049;-50
2021/03/07 08:43:21;;;;;;;11.05;8.57;;;16.70;48.90;;;;;;5056293;28;20033;-50
2021/03/07 08:46:08;;;;;;;8.15;7.20;;;16.10;70.90;;;;;;5064739;28;20048;-48
2021/03/07 08:48:34;;;;;;;12.93;9.02;;;15.40;46.60;;;;;;5063269;28;20025;-51
2021/03/07 08:51:01;;;;;;;11.55;8.65;;;14.70;46.80;;;;;;5062790;28;20037;-50
2021/03/07 08:53:30;;;;;;;10.20;7.80;;;15.50;47.60;;;;;;5054828;28;20040;-50
2021/03/07 08:55:56;;;;;;;8.40;6.65;;;14.10;45.60;;;;;;5055556;28;20116;-48
2021/03/07 08:58:23;;;;;;;7.57;6.15;;;;;;;;;;5055533;28;20179;-48
2021/03/07 09:00:51;;;;;;;5.65;4.03;;;13.20;47.80;;;;;;5067594;28;20515;-51
2021/03/07 09:03:18;;;;;;;5.40;4.63;;;12.70;44.60;;;;;;5056508;28;20033;-50
2021/03/07 09:05:44;;;;;;;5.95;4.00;;;13.10;46.20;;;;;;5056914;28;20039;-48
2021/03/07 09:08:10;;;;;;;5.40;3.88;;;12.60;43.80;;;;;;5067261;28;20040;-51
2021/03/07 09:10:40;;;;;;;5.63;4.22;;;12.20;43.40;;;;;;5063441;28;20049;-50
2021/03/07 09:13:19;;;;;;;6.22;3.70;;;13.90;44.40;;;;;;5063345;28;20422;-48
2021/03/07 09:15:51;;;;;;;6.07;3.13;;;13.00;42.10;;;;;;5079240;28;20091;-49
2021/03/07 09:18:19;;;;;;;2.85;2.05;;;13.40;42.10;;;;;;5064324;28;20036;-50
2021/03/07 09:20:51;;;;;;;6.00;4.97;;;12.40;41.40;;;;;;5062483;28;20036;-49
2021/03/07 09:23:44;;;;;;;4.03;2.78;;;12.50;44.00;;;;;;5061462;28;20045;-48
2021/03/07 09:26:19;;;;;;;5.57;4.20;;;11.90;43.30;;;;;;5061819;28;20432;-49
2021/03/07 09:28:48;;;;;;;5.30;3.28;;;12.60;43.40;;;;;;5063106;28;20421;-50
2021/03/07 09:31:17;;;;;;;4.50;3.47;;;11.40;43.80;;;;;;5064640;28;20434;-51
2021/03/07 09:33:56;;;;;;;5.32;3.92;;;13.20;61.50;;;;;;5063481;28;20083;-51
2021/03/07 09:36:24;;;;;;;6.13;4.55;;;12.90;42.30;;;;;;5063385;28;20028;-49
2021/03/07 09:38:55;;;;;;;6.30;5.55;;;;;;;;;;5084687;28;20045;-49
2021/03/07 09:41:44;;;;;;;4.80;3.70;;;;;;;;;;5058358;28;20070;-50
2021/03/07 09:44:18;;;;;;;3.50;2.90;;;13.60;79.20;;;;;;5057703;28;20506;-49
2021/03/07 09:46:45;;;;;;;9.57;8.02;;;13.50;40.90;;;;;;5059784;28;20042;-50
2021/03/07 09:49:14;;;;;;;8.18;6.78;;;;;;;;;;5062268;28;20064;-47
2021/03/07 09:51:42;;;;;;;69.05;42.78;;;13.80;64.60;;;;;;5062806;28;20035;-48
2021/03/07 09:54:13;;;;;;;17.42;11.00;;;13.30;43.40;;;;;;5063934;28;20103;-49
2021/03/07 09:56:39;;;;;;;7.38;5.03;;;13.50;41.70;;;;;;5061208;28;20476;-48
2021/03/07 09:59:11;;;;;;;24.30;18.67;;;14.00;44.10;;;;;;5063637;28;20391;-49
2021/03/07 10:02:01;;;;;;;10.55;7.20;;;13.40;42.50;;;;;;5062731;28;20091;-48
2021/03/07 10:04:39;;;;;;;8.38;5.80;;;13.50;41.70;;;;;;5061644;28;20085;-50
2021/03/07 10:07:10;;;;;;;9.60;6.88;;;13.90;41.30;;;;;;5070319;28;20044;-49
2021/03/07 10:09:58;;;;;;;5.97;4.07;;;13.60;41.80;;;;;;5071938;28;20127;-51
2021/03/07 10:12:25;;;;;;;8.25;5.28;;;13.00;41.20;;;;;;5071905;28;20093;-51
2021/03/07 10:14:54;;;;;;;6.10;5.13;;;13.60;40.20;;;;;;5072037;28;20036;-51
2021/03/07 10:17:21;;;;;;;5.32;4.25;;;14.20;41.70;;;;;;5071996;28;20188;-49
2021/03/07 10:19:47;;;;;;;5.13;4.07;;;12.40;41.40;;;;;;5057551;28;20044;-49
2021/03/07 10:22:14;;;;;;;7.85;5.22;;;13.40;40.80;;;;;;5052014;28;20138;-51
2021/03/07 10:24:40;;;;;;;9.57;5.10;;;13.50;41.90;;;;;;5052198;28;20041;-50
2021/03/07 10:27:08;;;;;;;6.47;4.85;;;13.50;39.90;;;;;;5051950;28;20071;-49
2021/03/07 10:29:40;;;;;;;8.43;5.80;;;13.90;39.70;;;;;;5051843;28;20056;-50
2021/03/07 10:32:06;;;;;;;9.40;6.97;;;12.40;40.50;;;;;;5051600;28;20041;-50
2021/03/07 10:34:41;;;;;;;8.07;4.28;;;11.80;41.50;;;;;;5051858;28;20183;-50
2021/03/07 10:37:08;;;;;;;7.95;3.80;;;12.70;41.40;;;;;;5052002;28;20503;-49
2021/03/07 10:39:34;;;;;;;6.35;5.13;;;12.20;41.40;;;;;;5051617;28;20573;-49
2021/03/07 10:42:05;;;;;;;9.30;6.35;;;12.90;42.40;;;;;;5053246;28;20076;-52
2021/03/07 10:44:30;;;;;;;7.45;5.68;;;14.20;42.20;;;;;;5053640;28;20079;-49
2021/03/07 10:46:56;;;;;;;11.10;8.65;;;14.40;41.80;;;;;;5054527;28;20033;-50
2021/03/07 10:49:22;;;;;;;7.05;5.78;;;15.30;60.10;;;;;;5053594;28;20439;-49
2021/03/07 10:51:48;;;;;;;8.05;6.85;;;15.60;50.00;;;;;;5053651;28;20087;-51
2021/03/07 10:54:14;;;;;;;9.55;5.50;;;14.80;41.00;;;;;;5055456;28;20033;-49
2021/03/07 10:56:40;;;;;;;8.05;5.07;;;;;;;;;;5053605;28;20029;-51
2021/03/07 10:59:07;;;;;;;7.45;6.07;;;;;;;;;;5053433;28;20049;-51
2021/03/07 11:01:33;;;;;;;7.90;5.80;;;16.10;39.90;;;;;;5053620;28;20468;-51
2021/03/07 11:03:59;;;;;;;8.57;6.60;;;16.50;67.60;;;;;;5053445;28;20029;-50
2021/03/07 11:06:25;;;;;;;8.07;6.05;;;16.30;50.10;;;;;;5053544;28;20029;-51
2021/03/07 11:08:51;;;;;;;7.10;5.97;;;16.60;51.80;;;;;;5053240;28;20438;-51
2021/03/07 11:11:18;;;;;;;8.48;6.20;;;16.50;64.70;;;;;;5053603;28;20171;-48
2021/03/07 11:13:44;;;;;;;9.18;6.53;;;16.60;58.90;;;;;;5053307;28;20131;-47
2021/03/07 11:16:11;;;;;;;10.55;7.68;;;16.10;38.60;;;;;;5053177;28;20044;-47
2021/03/07 11:18:37;;;;;;;7.22;5.65;;;17.20;46.50;;;;;;5058026;28;20036;-48
2021/03/07 11:21:04;;;;;;;12.80;8.98;;;;;;;;;;5058406;28;20040;-48
2021/03/07 11:23:30;;;;;;;7.57;6.55;;;15.70;37.90;;;;;;5059427;28;20025;-47
2021/03/07 11:25:56;;;;;;;7.82;5.82;;;;;;;;;;5058136;28;20033;-47
2021/03/07 11:28:22;;;;;;;10.02;7.82;;;15.80;40.70;;;;;;5057426;28;20086;-47
2021/03/07 11:30:47;;;;;;;9.60;7.00;;;15.80;40.50;;;;;;5057486;28;20037;-47
2021/03/07 11:33:13;;;;;;;6.82;5.68;;;16.20;40.20;;;;;;5057361;28;20060;-48
2021/03/07 11:35:39;;;;;;;7.90;6.18;;;16.60;39.60;;;;;;5057163;28;20043;-46
2021/03/07 11:38:05;;;;;;;8.00;6.07;;;15.20;39.00;;;;;;5057198;28;20064;-48
2021/03/07 11:40:30;;;;;;;8.00;6.57;;;15.50;39.80;;;;;;5057518;28;20025;-49
2021/03/07 11:42:57;;;;;;;10.23;7.40;;;15.10;40.30;;;;;;5063370;28;20036;-47
2021/03/07 11:45:23;;;;;;;8.88;6.80;;;;;;;;;;5074563;28;20036;-48
2021/03/07 11:47:50;;;;;;;7.57;6.47;;;;;;;;;;5073538;28;20029;-48
2021/03/07 11:50:16;;;;;;;9.32;6.45;;;15.60;82.30;;;;;;5076971;28;20503;-49
2021/03/07 11:52:42;;;;;;;19.33;12.80;;;16.20;38.50;;;;;;5066341;28;20052;-48
2021/03/07 11:55:08;;;;;;;14.15;11.35;;;16.40;38.60;;;;;;5056936;28;20468;-49
2021/03/07 11:57:34;;;;;;;11.65;8.82;;;16.50;38.30;;;;;;5073573;28;20045;-48
2021/03/07 12:00:05;;;;;;;11.52;9.40;;;16.10;39.20;;;;;;5091926;28;20178;-50
2021/03/07 12:02:31;;;;;;;10.32;6.57;;;16.30;39.10;;;;;;5074888;28;20063;-48
2021/03/07 12:04:57;;;;;;;6.78;5.22;;;15.80;39.40;;;;;;5071719;28;20534;-49
2021/03/07 12:07:23;;;;;;;8.20;4.85;;;16.40;38.70;;;;;;5065318;28;20083;-47
2021/03/07 12:09:48;;;;;;;7.97;5.55;;;16.40;49.00;;;;;;5056370;28;20041;-49
2021/03/07 12:12:14;;;;;;;7.57;5.60;;;15.20;39.60;;;;;;5038304;28;20041;-47
2021/03/07 12:14:41;;;;;;;13.13;8.23;;;15.60;40.00;;;;;;5056660;28;20036;-49
2021/03/07 12:17:07;;;;;;;8.98;5.45;;;15.70;40.40;;;;;;5056263;28;20064;-47
2021/03/07 12:19:33;;;;;;;11.68;7.57;;;;;;;;;;5056424;28;20056;-50
2021/03/07 12:21:59;;;;;;;11.00;7.63;;;16.90;61.30;;;;;;5056424;28;20095;-50
2021/03/07 12:24:25;;;;;;;8.95;7.63;;;16.70;38.40;;;;;;5056354;28;20024;-50
2021/03/07 12:26:51;;;;;;;13.02;7.82;;;16.10;39.00;;;;;;5056931;28;20124;-49
2021/03/07 12:29:16;;;;;;;11.18;7.88;;;15.20;39.50;;;;;;5055057;28;20120;-48
2021/03/07 12:31:42;;;;;;;14.02;9.18;;;14.30;40.00;;;;;;5056357;28;20029;-47
2021/03/07 12:34:08;;;;;;;16.80;8.35;;;13.60;40.90;;;;;;5056796;28;20029;-48
2021/03/07 12:36:34;;;;;;;10.73;6.80;;;14.70;40.60;;;;;;5056042;28;20507;-48
2021/03/07 12:39:00;;;;;;;10.70;8.40;;;;;;;;;;5055870;28;20495;-47
2021/03/07 12:41:26;;;;;;;14.75;10.10;;;13.70;80.30;;;;;;5056034;28;20028;-48
2021/03/07 12:43:52;;;;;;;8.95;7.28;;;13.70;41.10;;;;;;5055878;28;20032;-48
2021/03/07 12:46:17;;;;;;;8.02;6.15;;;14.40;41.60;;;;;;5056059;28;20056;-50
2021/03/07 12:48:43;;;;;;;19.67;10.90;;;14.40;40.40;;;;;;5056453;28;20033;-50
2021/03/07 12:51:09;;;;;;;8.40;6.20;;;15.50;41.20;;;;;;5055902;28;20028;-49
2021/03/07 12:53:34;;;;;;;7.72;6.10;;;15.00;40.10;;;;;;5056108;28;20025;-49
2021/03/07 12:56:00;;;;;;;8.18;6.40;;;16.10;40.50;;;;;;5054289;28;20037;-49